TimeCDT,TemperatureF,Dew PointF,Humidity,Sea Level PressureIn,VisibilityMPH,Wind Direction,Wind SpeedMPH,Gust SpeedMPH,PrecipitationIn,Events,Conditions,WindDirDegrees,DateUTC
12:54 AM,55.0,46.0,72,29.88,10.0,South,6.9,-,N/A,,Clear,190,2013-09-30 05:54:00
1:54 AM,54.0,46.0,75,29.87,10.0,South,10.4,-,N/A,,Clear,180,2013-09-30 06:54:00
2:54 AM,50.0,45.0,83,29.87,10.0,South,4.6,-,N/A,,Clear,180,2013-09-30 07:54:00
3:54 AM,51.1,46.0,83,29.84,10.0,South,6.9,-,N/A,,Clear,180,2013-09-30 08:54:00
4:54 AM,50.0,46.0,86,29.84,10.0,South,8.1,-,N/A,,Clear,180,2013-09-30 09:54:00
5:54 AM,52.0,46.9,83,29.84,10.0,South,6.9,-,N/A,,Clear,180,2013-09-30 10:54:00
6:54 AM,50.0,46.0,86,29.84,10.0,South,6.9,-,N/A,,Clear,180,2013-09-30 11:54:00
7:54 AM,53.1,48.0,83,29.85,10.0,South,8.1,-,N/A,,Clear,190,2013-09-30 12:54:00
8:54 AM,57.0,48.0,72,29.83,10.0,SSW,10.4,-,N/A,,Clear,200,2013-09-30 13:54:00
9:54 AM,61.0,48.9,64,29.81,10.0,South,12.7,-,N/A,,Clear,190,2013-09-30 14:54:00
10:54 AM,66.0,48.0,52,29.82,10.0,SSW,13.8,-,N/A,,Clear,200,2013-09-30 15:54:00
11:54 AM,72.0,48.0,43,29.79,10.0,SW,19.6,24.2,N/A,,Clear,220,2013-09-30 16:54:00
12:54 PM,78.1,46.9,33,29.77,10.0,SSW,20.7,28.8,N/A,,Clear,210,2013-09-30 17:54:00
1:54 PM,80.1,46.9,31,29.75,10.0,SSW,18.4,25.3,N/A,,Clear,200,2013-09-30 18:54:00
2:54 PM,82.0,48.0,30,29.73,10.0,South,16.1,26.5,N/A,,Clear,190,2013-09-30 19:54:00
3:54 PM,82.0,46.9,29,29.71,10.0,South,18.4,-,N/A,,Clear,190,2013-09-30 20:54:00
4:54 PM,82.0,46.9,29,29.70,10.0,SSW,19.6,25.3,N/A,,Clear,200,2013-09-30 21:54:00
5:54 PM,79.0,48.0,34,29.70,10.0,SSW,18.4,-,N/A,,Clear,200,2013-09-30 22:54:00
6:54 PM,75.9,50.0,40,29.71,10.0,South,13.8,-,N/A,,Clear,190,2013-09-30 23:54:00
7:54 PM,68.0,50.0,52,29.73,10.0,South,9.2,-,N/A,,Clear,190,2013-10-01 00:54:00
8:54 PM,63.0,50.0,63,29.74,10.0,South,8.1,-,N/A,,Clear,170,2013-10-01 01:54:00
9:54 PM,61.0,51.1,70,29.75,10.0,South,9.2,-,N/A,,Clear,180,2013-10-01 02:54:00
10:54 PM,68.0,52.0,56,29.76,10.0,South,13.8,-,N/A,,Clear,190,2013-10-01 03:54:00
11:54 PM,66.0,52.0,60,29.77,10.0,SSW,9.2,-,N/A,,Clear,200,2013-10-01 04:54:00